Latest Weather Observations for Cape Willoughby

IDS60801

Issued at 5:02 pm CST Thursday 7 May 2015 (issued every 30 minutes, with the page automatically refreshed every 10 minutes)

About weather observations | Map of weather stations | Latest weather observations for SA | Other Formats
Station Details ID: 022803 Name: CAPE WILLOUGHBY Lat: -35.84 Lon: 138.13 Height: 55.0 m
Data from the previous 72 hours. | See also: Recent months at Cape Willoughby
Date/Time
CST
Temp
°C
App
Temp
°C
Dew
Point
Rel
Hum
%
Delta-T
°C
Wind Press
QNH
hPa
Press
MSL
hPa
Rain
since 9 am
mm
Dir
 
Spd
km/h
Gust
km/h
Spd
kts
Gust
kts
07/05:00pm 12.9 8.8 8.6 75 2.1 WSW 20 28 11 15 1025.3 1025.2 0.8
07/04:30pm 13.7 8.0 8.3 70 2.7 SW 28 48 15 26 1025.3 1025.2 0.8
07/04:00pm 14.3 8.1 9.3 72 2.6 SW 32 46 17 25 1024.8 1024.7 0.8
07/03:30pm 13.8 6.6 7.8 67 3.0 SW 35 48 19 26 1025.1 1025.0 0.8
07/03:00pm 14.9 7.7 7.7 62 3.6 SW 35 44 19 24 1024.8 1024.7 0.8
07/02:30pm 14.2 8.2 8.8 70 2.7 SW 30 39 16 21 1024.9 1024.8 0.8
07/02:00pm 14.5 7.8 8.2 66 3.2 SW 33 43 18 23 1024.8 1024.7 0.8
07/01:30pm 14.6 7.2 8.5 67 3.1 SW 37 50 20 27 1024.6 1024.5 0.8
07/01:00pm 14.9 8.1 7.5 61 3.7 SW 33 44 18 24 1024.9 1024.8 0.8
07/12:30pm 14.3 7.5 7.8 65 3.2 SW 33 44 18 24 1025.1 1025.0 0.8
07/12:00pm 13.7 8.2 9.2 74 2.3 WSW 28 37 15 20 1025.6 1025.5 0.8
07/11:34am 14.2 7.4 7.9 66 3.1 SW 33 54 18 29 1025.2 1025.1 0.8
07/11:30am 14.6 8.4 7.9 64 3.3 SW 30 41 16 22 1025.4 1025.3 0.8
07/11:00am 13.8 7.5 7.6 66 3.1 SW 30 44 16 24 1025.6 1025.5 0.8
07/10:30am 13.7 9.0 9.4 75 2.2 WSW 24 32 13 17 1025.7 1025.7 0.8
07/10:00am 12.7 6.8 9.2 79 1.8 WSW 30 43 16 23 1025.6 1025.5 0.8
07/09:30am 12.9 8.4 8.6 75 2.1 W 22 35 12 19 1025.4 1025.3 0.8
07/09:00am 12.0 7.2 9.0 82 1.5 WNW 24 33 13 18 1025.2 1025.1 2.4
07/08:30am 13.2 8.0 8.7 74 2.2 WSW 26 39 14 21 1024.7 1024.6 2.4
07/08:00am 11.6 8.2 9.2 85 1.2 WSW 17 20 9 11 1024.4 1024.3 2.4
07/07:30am 11.1 6.6 8.7 85 1.2 W 22 30 12 16 1023.8 1023.7 2.4
07/07:00am 11.0 5.2 8.1 82 1.4 W 28 35 15 19 1023.5 1023.4 2.0
07/06:30am 12.8 7.0 8.1 73 2.3 SW 28 41 15 22 1023.0 1022.9 2.0
07/06:00am 10.7 6.3 7.6 81 1.5 W 20 30 11 16 1023.0 1022.9 2.0
07/05:30am 10.9 5.0 7.6 80 1.6 W 28 37 15 20 1022.9 1022.8 2.0
07/05:00am 10.7 6.3 7.6 81 1.5 W 20 28 11 15 1022.7 1022.6 2.0
07/04:30am 10.8 5.4 8.0 83 1.4 W 26 32 14 17 1022.5 1022.4 2.0
07/04:00am 10.4 5.5 8.3 87 1.0 WNW 24 30 13 16 1022.4 1022.3 2.0
07/03:30am 10.8 5.8 8.2 84 1.3 WNW 24 32 13 17 1022.4 1022.3 2.0
07/03:00am 11.2 7.0 8.1 81 1.5 WSW 20 30 11 16 1022.3 1022.2 2.0
07/02:30am 11.1 6.5 8.1 82 1.5 WSW 22 30 12 16 1022.5 1022.4 2.0
07/02:00am 11.3 5.1 9.4 88 1.0 W 32 41 17 22 1022.5 1022.4 2.0
07/01:48am 11.3 5.8 9.0 86 1.1 W 28 50 15 27 1022.4 1022.3 1.6
07/01:30am 11.4 7.0 8.8 84 1.3 W 22 30 12 16 1022.3 1022.2 1.0
07/01:00am 11.2 5.6 8.9 86 1.1 W 28 39 15 21 1022.3 1022.2 1.0
07/12:30am 11.1 6.8 8.0 81 1.5 WNW 20 28 11 15 1022.2 1022.1 0.8
07/12:00am 11.6 6.3 8.5 81 1.5 W 26 35 14 19 1022.4 1022.3 0.8
 
Date/Time
CST
Temp
°C
App
Temp
°C
Dew
Point
Rel
Hum
%
Delta-T
°C
Wind Press
QNH
hPa
Press
MSL
hPa
Rain
since 9 am
mm
Dir
 
Spd
km/h
Gust
km/h
Spd
kts
Gust
kts
06/11:30pm 11.0 5.6 8.2 83 1.4 WNW 26 33 14 18 1022.2 1022.1 0.8
06/11:00pm 10.8 6.3 8.4 85 1.2 WNW 22 30 12 16 1022.3 1022.2 0.8
06/10:30pm 11.2 7.6 8.4 83 1.4 W 17 22 9 12 1022.4 1022.3 0.8
06/10:00pm 11.4 6.5 8.4 82 1.5 WNW 24 35 13 19 1022.2 1022.1 0.8
06/09:30pm 12.0 7.8 8.1 77 1.9 W 20 28 11 15 1022.2 1022.1 0.8
06/09:00pm 12.1 6.7 8.0 76 2.0 W 26 33 14 18 1021.9 1021.8 0.8
06/08:30pm 12.9 8.3 6.7 66 3.0 WNW 20 30 11 16 1021.6 1021.5 0.8
06/08:00pm 13.2 8.7 6.1 62 3.4 WNW 19 24 10 13 1021.6 1021.5 0.8
06/07:30pm 13.8 8.7 7.8 67 3.0 WSW 24 30 13 16 1021.4 1021.3 0.8
06/07:00pm 14.0 8.0 5.1 55 4.2 WSW 26 37 14 20 1021.1 1021.0 0.8
06/06:30pm 13.7 8.3 4.6 54 4.2 W 22 30 12 16 1020.9 1020.8 0.8
06/06:00pm 14.0 8.2 6.4 60 3.6 W 26 33 14 18 1020.4 1020.3 0.8
06/05:30pm 13.9 8.8 9.3 74 2.3 SW 26 35 14 19 1020.1 1020.0 0.8
06/05:00pm 14.3 9.1 8.7 69 2.8 WSW 26 39 14 21 1019.7 1019.7 0.8
06/04:30pm 14.6 8.0 6.2 57 4.0 WSW 30 37 16 20 1019.4 1019.4 0.8
06/04:00pm 14.9 8.0 6.5 57 4.1 WSW 32 39 17 21 1019.2 1019.2 0.8
06/03:30pm 15.5 9.1 8.7 64 3.5 WSW 32 43 17 23 1019.0 1019.0 0.8
06/03:12pm 15.5 8.5 6.8 56 4.3 WSW 33 52 18 28 1018.7 1018.7 0.8
06/03:00pm 15.4 7.7 6.9 57 4.2 WSW 37 52 20 28 1018.6 1018.6 0.8
06/02:30pm 15.7 8.4 7.2 57 4.2 WSW 35 50 19 27 1018.7 1018.7 0.8
06/02:00pm 15.5 8.3 9.2 66 3.2 WSW 37 56 20 30 1018.4 1018.4 0.8
06/01:30pm 14.9 8.0 8.8 67 3.1 SW 35 50 19 27 1018.3 1018.3 0.8
06/01:00pm 13.8 7.7 10.6 81 1.7 WSW 33 43 18 23 1018.6 1018.6 0.8
06/12:46pm 13.8 8.7 10.6 81 1.7 SW 28 48 15 26 1018.5 1018.5 0.8
06/12:30pm 13.6 7.0 11.3 86 1.2 SW 37 46 20 25 1018.6 1018.6 0.8
06/12:00pm 13.9 9.7 12.3 90 0.9 WSW 26 33 14 18 1018.7 1018.7 0.8
06/11:32am 15.5 9.7 10.7 73 2.5 WSW 32 54 17 29 1018.4 1018.4 0.0
06/11:30am 16.1 10.7 10.8 71 2.8 WSW 30 44 16 24 1018.5 1018.5 0.0
06/11:18am 15.9 10.6 11.1 73 2.6 W 30 52 16 28 1018.4 1018.4 0.0
06/11:00am 14.2 7.9 11.0 81 1.7 WSW 35 46 19 25 1018.4 1018.4 0.0
06/10:30am 15.7 9.5 10.2 70 2.9 W 33 46 18 25 1018.0 1018.0 0.0
06/10:00am 15.9 10.2 9.8 67 3.2 W 30 44 16 24 1017.8 1017.8 0.0
06/09:30am 15.7 9.5 10.0 69 3.0 WNW 33 41 18 22 1017.4 1017.4 0.0
06/09:00am 14.9 10.4 9.9 72 2.6 WNW 24 32 13 17 1017.3 1017.3 0.0
06/08:30am 14.2 9.0 10.2 77 2.1 WNW 28 39 15 21 1017.0 1017.0 0.0
06/08:00am 13.1 8.5 9.7 80 1.7 NW 24 33 13 18 1016.5 1016.5 0.0
06/07:30am 12.3 8.3 9.0 80 1.7 NW 20 28 11 15 1016.0 1016.0 0.0
06/07:00am 12.1 7.6 8.4 78 1.8 NW 22 30 12 16 1015.7 1015.7 0.0
06/06:30am 12.2 7.2 7.9 75 2.1 WNW 24 30 13 16 1015.5 1015.5 0.0
06/06:00am 12.2 7.9 7.9 75 2.1 WNW 20 28 11 15 1015.6 1015.6 0.0
06/05:30am 12.0 7.4 8.1 77 1.9 WNW 22 28 12 15 1015.4 1015.4 0.0
06/05:00am 11.5 6.8 7.6 77 1.9 NW 22 26 12 14 1015.0 1015.0 0.0
06/04:30am 10.9 5.3 7.2 78 1.8 WNW 26 32 14 17 1014.9 1014.9 0.0
06/04:00am 11.1 5.2 7.4 78 1.8 WNW 28 33 15 18 1014.8 1014.8 0.0
06/03:30am 11.3 5.4 7.4 77 1.9 WNW 28 39 15 21 1014.6 1014.6 0.0
06/03:00am 11.5 5.9 7.2 75 2.1 WNW 26 37 14 20 1014.5 1014.5 0.0
06/02:30am 11.9 5.6 7.6 75 2.1 W 30 39 16 21 1014.6 1014.6 0.0
06/02:00am 11.4 6.3 7.7 78 1.8 WNW 24 32 13 17 1014.5 1014.5 0.0
06/01:30am 11.4 5.1 7.3 76 2.0 WNW 30 39 16 21 1014.7 1014.7 0.0
06/01:00am 11.1 5.2 7.6 79 1.7 WNW 28 35 15 19 1014.7 1014.7 0.0
06/12:30am 10.6 4.7 7.7 82 1.4 WNW 28 35 15 19 1014.6 1014.6 0.0
06/12:00am 11.0 4.7 7.3 78 1.8 WNW 30 44 16 24 1014.6 1014.6 0.0
 
Date/Time
CST
Temp
°C
App
Temp
°C
Dew
Point
Rel
Hum
%
Delta-T
°C
Wind Press
QNH
hPa
Press
MSL
hPa
Rain
since 9 am
mm
Dir
 
Spd
km/h
Gust
km/h
Spd
kts
Gust
kts
05/11:30pm 10.3 4.2 6.6 78 1.7 WNW 28 37 15 20 1014.5 1014.5 0.0
05/11:00pm 10.6 5.0 7.1 79 1.7 W 26 35 14 19 1014.5 1014.5 0.0
05/10:30pm 10.7 5.1 7.0 78 1.8 WNW 26 33 14 18 1014.7 1014.7 0.0
05/10:00pm 10.4 4.7 6.9 79 1.7 W 26 32 14 17 1014.4 1014.4 0.0
05/09:30pm 10.2 4.1 6.7 79 1.6 WNW 28 35 15 19 1014.1 1014.1 0.0
05/09:00pm 10.0 3.9 6.5 79 1.6 WNW 28 37 15 20 1013.9 1013.9 0.0
05/08:30pm 10.3 3.8 6.3 76 1.9 WNW 30 39 16 21 1013.9 1013.9 0.0
05/08:00pm 10.1 3.9 6.1 76 1.9 WNW 28 37 15 20 1013.4 1013.4 0.0
05/07:30pm 10.6 4.5 6.6 76 1.9 W 28 37 15 20 1013.0 1013.0 0.0
05/07:00pm 10.9 5.0 5.9 71 2.3 W 26 35 14 19 1013.0 1013.0 0.0
05/06:30pm 10.8 4.5 5.8 71 2.3 WNW 28 35 15 19 1012.4 1012.4 0.0
05/06:00pm 10.9 4.0 6.5 74 2.1 W 32 44 17 24 1011.8 1011.8 0.0
05/05:30pm 11.5 4.8 5.4 66 2.8 W 30 41 16 22 1011.2 1011.2 0.0
05/05:14pm 11.6 4.4 5.7 67 2.7 W 33 52 18 28 1011.2 1011.2 0.0
05/05:00pm 12.8 5.7 6.6 66 3.0 W 33 46 18 25 1011.1 1011.1 0.0
05/04:40pm 12.9 5.1 5.1 59 3.6 W 35 56 19 30 1010.9 1010.9 0.0
05/04:30pm 13.1 4.2 5.3 59 3.6 W 41 56 22 30 1010.8 1010.8 0.0
05/04:00pm 13.2 4.0 5.6 60 3.6 WSW 43 57 23 31 1010.3 1010.2 0.0
05/03:35pm 13.0 5.7 7.2 68 2.8 WSW 35 57 19 31 1009.8 1009.7 0.0
05/03:30pm 13.1 6.4 7.5 69 2.7 WSW 32 43 17 23 1009.9 1009.8 0.0
05/03:00pm 13.9 5.2 4.2 52 4.5 W 39 57 21 31 1009.6 1009.5 0.0
05/02:47pm 14.4 6.9 4.7 52 4.5 W 33 54 18 29 1009.5 1009.4 0.0
05/02:30pm 14.4 7.0 5.2 54 4.3 W 33 50 18 27 1009.3 1009.2 0.0
05/02:00pm 13.4 4.1 6.0 61 3.5 W 44 65 24 35 1008.9 1008.8 0.0
05/01:35pm 14.4 5.5 3.2 47 5.1 W 39 63 21 34 1008.4 1008.3 0.0
05/01:30pm 14.3 5.5 3.7 49 4.8 W 39 56 21 30 1008.3 1008.2 0.0
05/01:00pm 13.8 4.3 4.9 55 4.1 WSW 44 65 24 35 1008.1 1008.0 0.0
05/12:40pm 14.6 6.4 4.9 52 4.5 W 37 57 20 31 1008.1 1008.0 0.0
05/12:30pm 13.9 5.5 5.8 58 3.9 W 39 52 21 28 1008.3 1008.2 0.0
05/12:03pm 13.8 5.1 6.2 60 3.6 W 41 61 22 33 1007.9 1007.8 0.0
05/12:00pm 13.9 6.0 6.3 60 3.7 W 37 54 20 29 1008.1 1008.0 0.0
05/11:36am 14.7 5.8 5.0 52 4.6 W 41 59 22 32 1007.7 1007.6 0.0
05/11:30am 14.3 4.6 5.9 57 4.0 W 46 63 25 34 1007.6 1007.5 0.0
05/11:00am 13.4 4.1 5.1 57 3.9 W 43 65 23 35 1007.1 1007.0 0.0
05/10:51am 13.7 5.3 5.8 59 3.7 W 39 57 21 31 1007.1 1007.0 0.0
05/10:30am 13.5 4.2 5.9 60 3.6 W 44 61 24 33 1006.4 1006.3 0.0
05/10:18am 13.2 5.4 6.5 64 3.2 W 37 56 20 30 1006.2 1006.1 0.0
05/10:00am 12.8 4.9 6.2 64 3.1 WNW 37 50 20 27 1005.9 1005.8 0.0
05/09:30am 11.6 3.5 5.3 65 2.9 WNW 37 52 20 28 1005.4 1005.3 0.0
05/09:00am 11.0 2.7 6.2 72 2.3 WNW 39 48 21 26 1005.0 1004.9 -
05/08:30am 10.5 3.4 6.3 75 2.0 WNW 33 44 18 24 1004.4 1004.3 -
05/08:00am 9.9 3.8 6.8 81 1.5 WNW 28 37 15 20 1004.0 1003.9 -
05/07:30am 9.6 3.1 6.7 82 1.4 WNW 30 43 16 23 1003.2 1003.1 -
05/07:07am 9.6 1.7 6.3 80 1.5 W 37 56 20 30 1002.5 1002.4 -
05/07:00am 9.9 1.7 6.6 80 1.5 WNW 39 56 21 30 1002.5 1002.4 -
05/06:30am 10.2 2.2 7.6 84 1.3 WNW 39 61 21 33 1002.4 1002.3 -
05/06:23am 10.3 3.7 7.9 85 1.2 WNW 32 61 17 33 1002.4 1002.3 -
05/06:00am 10.6 4.1 8.2 85 1.2 NW 32 44 17 24 1001.7 1001.6 -
05/05:34am 10.8 4.1 8.0 83 1.4 NW 33 52 18 28 1001.7 1001.6 -
05/05:30am 10.8 3.3 8.0 83 1.4 NW 37 54 20 29 1002.0 1001.9 -
05/05:00am 10.9 2.0 6.8 76 1.9 WNW 43 69 23 37 1001.7 1001.6 -
05/04:42am 11.5 3.0 7.0 74 2.2 WNW 41 76 22 41 1001.5 1001.4 -
05/04:41am 11.4 2.9 7.1 75 2.1 WNW 41 76 22 41 1001.4 1001.3 -
05/04:40am 11.2 3.5 7.3 77 1.9 WNW 37 76 20 41 1001.4 1001.3 -
05/04:37am 11.3 4.8 8.2 81 1.5 WNW 32 56 17 30 1001.6 1001.5 -
05/04:30am 11.3 6.4 8.5 83 1.4 WNW 24 33 13 18 1001.7 1001.6 -
05/04:00am 11.0 4.7 7.3 78 1.8 WNW 30 39 16 21 1001.7 1001.6 -
05/03:30am 11.4 5.2 7.9 79 1.7 WNW 30 41 16 22 1001.9 1001.8 -
05/03:00am 11.6 4.8 9.2 85 1.2 WNW 35 46 19 25 1002.1 1002.0 2.0
05/02:30am 11.2 2.7 8.6 84 1.3 WNW 43 70 23 38 1001.9 1001.8 -
05/02:23am 11.2 3.0 8.2 82 1.5 W 41 70 22 38 1002.0 1001.9 -
05/02:21am 11.4 3.9 7.9 79 1.7 W 37 70 20 38 1002.3 1002.2 -
05/02:18am 13.0 7.6 9.6 80 1.7 W 28 54 15 29 1002.6 1002.5 -
05/02:00am 13.0 7.5 9.1 77 2.0 WNW 28 39 15 21 1002.2 1002.1 -
05/01:30am 13.0 6.6 8.5 74 2.3 WNW 32 46 17 25 1002.4 1002.3 -
05/01:07am 15.1 7.0 8.6 65 3.3 WNW 41 59 22 32 1002.5 1002.4 -
05/01:00am 14.9 7.7 9.1 68 3.0 NW 37 54 20 29 1002.4 1002.3 -
05/12:30am 15.0 8.4 8.5 65 3.3 WNW 33 44 18 24 1002.5 1002.4 -
05/12:00am 15.5 8.4 9.6 68 3.1 WNW 37 56 20 30 1002.4 1002.3 -
 
Date/Time
CST
Temp
°C
App
Temp
°C
Dew
Point
Rel
Hum
%
Delta-T
°C
Wind Press
QNH
hPa
Press
MSL
hPa
Rain
since 9 am
mm
Dir
 
Spd
km/h
Gust
km/h
Spd
kts
Gust
kts
04/11:35pm 15.7 7.6 10.2 70 2.9 WNW 43 61 23 33 1002.6 1002.5 -
04/11:30pm 15.9 7.1 10.9 72 2.7 WNW 48 63 26 34 1002.7 1002.6 -
04/11:05pm 17.3 9.8 10.7 65 3.5 NW 41 67 22 36 1002.5 1002.4 -
04/11:00pm 17.3 9.2 10.2 63 3.8 NW 43 59 23 32 1002.5 1002.4 -
04/10:42pm 17.4 9.0 9.8 61 4.0 NW 44 70 24 38 1002.6 1002.5 -
04/10:30pm 17.6 9.7 10.7 64 3.7 NW 43 57 23 31 1002.6 1002.5 -
04/10:08pm 17.7 9.8 10.8 64 3.7 NW 43 63 23 34 1002.3 1002.2 -
04/10:00pm 17.7 10.0 11.5 67 3.4 WNW 43 57 23 31 1002.4 1002.3 -
04/09:31pm 17.8 10.6 12.0 69 3.2 NW 41 61 22 33 1002.3 1002.2 -
04/09:30pm 17.8 10.6 12.0 69 3.2 NW 41 54 22 29 1002.4 1002.3 -
04/09:03pm 18.8 12.9 12.5 67 3.5 NW 35 59 19 32 1002.3 1002.2 -
04/09:00pm 18.8 13.3 12.5 67 3.5 NW 33 46 18 25 1002.3 1002.2 -
04/08:30pm 19.2 12.3 11.7 62 4.2 NW 39 50 21 27 1002.0 1001.9 -
04/08:00pm 19.5 12.9 11.5 60 4.4 NW 37 56 20 30 1002.1 1002.0 -
04/07:36pm 19.7 14.2 12.0 61 4.3 NW 32 61 17 33 1001.8 1001.7 -
04/07:30pm 19.4 14.4 12.2 63 4.0 NW 30 39 16 21 1001.9 1001.8 -
04/07:00pm 19.0 14.0 13.4 70 3.2 NNW 32 41 17 22 1002.0 1001.9 -
04/06:38pm 19.8 14.5 12.6 63 4.1 NNW 32 50 17 27 1001.7 1001.6 -
04/06:30pm 19.9 15.3 12.2 61 4.3 NNW 28 37 15 20 1001.7 1001.6 -
04/06:00pm 19.7 14.2 12.5 63 4.1 NNW 33 46 18 25 1001.7 1001.6 -
04/05:30pm 19.9 13.9 12.2 61 4.3 NNW 35 48 19 26 1001.5 1001.4 -

Other Formats:

Comma delimited format used in spreadsheet applications
http://www.bom.gov.au/fwo/IDS60801/IDS60801.94822.axf

JavaScript Object Notation format (JSON) in row-major order
http://www.bom.gov.au/fwo/IDS60801/IDS60801.94822.json